Time;durP1;ratioP1;P1;durP2;ratioP2;P2;SDS_P1;SDS_P2;PMS_P1;PMS_P2;Temp;Humidity;BMP_temperature;BMP_pressure;BME280_temperature;BME280_humidity;BME280_pressure;Samples;Min_cycle;Max_cycle;Signal;HPM_P1;HPM_P2
2023/07/10 00:01:01;;;;;;;255.82;112.72;;;18.20;99.90;;;;;;4973076;28;20418;-91
2023/07/10 00:03:28;;;;;;;275.05;116.18;;;18.30;99.90;;;;;;4973363;28;20445;-91
2023/07/10 00:05:57;;;;;;;200.63;103.60;;;18.40;99.90;;;;;;4973448;28;20417;-89
2023/07/10 00:08:23;;;;;;;159.88;91.03;;;18.30;99.90;;;;;;4973335;28;20402;-91
2023/07/10 00:10:50;;;;;;;153.03;90.20;;;18.40;99.90;;;;;;4972798;28;20418;-90
2023/07/10 00:13:21;;;;;;;150.90;89.00;;;18.30;99.90;;;;;;4973075;28;20464;-90
2023/07/10 00:15:51;;;;;;;246.20;112.57;;;18.30;99.90;;;;;;4972515;28;20425;-91
2023/07/10 00:18:19;;;;;;;172.52;96.45;;;18.30;99.90;;;;;;4973018;28;20415;-91
2023/07/10 00:20:45;;;;;;;241.02;112.00;;;18.10;99.90;;;;;;4989478;28;20406;-92
2023/07/10 00:23:11;;;;;;;155.63;91.75;;;18.30;99.90;;;;;;4973094;28;20442;-90
2023/07/10 00:25:37;;;;;;;190.05;97.78;;;18.30;99.90;;;;;;4973106;28;20502;-90
2023/07/10 00:28:15;;;;;;;234.85;105.28;;;18.20;99.90;;;;;;4988692;28;20915;-91
2023/07/10 00:30:41;;;;;;;288.77;117.50;;;18.20;99.90;;;;;;4972866;28;20407;-92
2023/07/10 00:33:10;;;;;;;137.98;87.32;;;18.10;99.90;;;;;;4972900;28;20819;-90
2023/07/10 00:35:37;;;;;;;254.23;106.00;;;18.10;99.90;;;;;;4972840;28;20413;-91
2023/07/10 00:38:18;;;;;;;147.20;86.13;;;18.10;99.90;;;;;;4972707;28;20411;-90
2023/07/10 00:40:46;;;;;;;111.90;72.80;;;18.00;99.90;;;;;;4972668;28;20407;-90
2023/07/10 00:43:28;;;;;;;117.78;76.60;;;18.20;99.90;;;;;;4972701;28;20439;-91
2023/07/10 00:45:56;;;;;;;242.88;108.63;;;17.90;99.90;;;;;;4972271;28;20919;-90
2023/07/10 00:48:36;;;;;;;285.10;111.68;;;17.90;99.90;;;;;;4972164;28;21186;-90
2023/07/10 00:51:09;;;;;;;119.88;75.97;;;17.90;99.90;;;;;;4972629;28;20440;-91
2023/07/10 00:53:39;;;;;;;265.60;108.50;;;17.90;99.90;;;;;;4972320;28;20406;-91
2023/07/10 00:56:13;;;;;;;121.80;76.47;;;18.30;99.90;;;;;;4972369;28;20418;-90
2023/07/10 00:58:41;;;;;;;121.55;77.82;;;17.80;99.90;;;;;;4971938;28;20415;-90
2023/07/10 01:01:13;;;;;;;136.77;81.63;;;18.00;99.90;;;;;;4970930;28;20413;-91
2023/07/10 01:03:40;;;;;;;123.47;81.65;;;17.80;99.90;;;;;;4972078;28;20859;-90
2023/07/10 01:06:17;;;;;;;123.75;80.38;;;18.00;99.90;;;;;;4972150;28;20900;-89
2023/07/10 01:09:05;;;;;;;189.30;100.32;;;17.80;99.90;;;;;;4972071;28;20414;-91
2023/07/10 01:11:34;;;;;;;94.53;68.68;;;17.90;99.90;;;;;;4987485;28;20396;-90
2023/07/10 01:14:01;;;;;;;168.50;92.90;;;17.80;99.90;;;;;;4971790;28;20911;-91
2023/07/10 01:16:28;;;;;;;139.25;87.28;;;17.80;99.90;;;;;;4971555;28;20414;-91
2023/07/10 01:18:54;;;;;;;105.78;71.30;;;17.80;99.90;;;;;;4987700;28;20423;-89
2023/07/10 01:21:30;;;;;;;374.85;122.80;;;17.80;99.90;;;;;;4988095;28;20421;-90
2023/07/10 01:23:57;;;;;;;90.97;69.78;;;18.00;99.90;;;;;;4987821;28;20998;-90
2023/07/10 01:26:24;;;;;;;146.65;90.68;;;17.80;99.90;;;;;;4971689;28;20494;-91
2023/07/10 01:28:52;;;;;;;120.75;79.05;;;17.80;99.90;;;;;;4971288;28;20445;-91
2023/07/10 01:31:19;;;;;;;106.88;73.57;;;17.80;99.90;;;;;;4971444;28;20903;-89
2023/07/10 01:33:52;;;;;;;261.23;107.85;;;17.80;99.90;;;;;;4971940;28;20828;-89
2023/07/10 01:36:24;;;;;;;264.17;117.15;;;17.60;99.90;;;;;;4971644;28;20450;-91
2023/07/10 01:38:58;;;;;;;262.33;115.88;;;17.80;99.90;;;;;;4972071;28;20426;-90
2023/07/10 01:41:38;;;;;;;251.80;111.63;;;18.00;99.90;;;;;;4971099;28;20427;-89
2023/07/10 01:44:32;;;;;;;180.20;94.15;;;17.90;99.90;;;;;;4971400;28;20436;-90
2023/07/10 01:47:00;;;;;;;191.40;100.05;;;17.90;99.90;;;;;;4966931;28;20477;-88
2023/07/10 01:49:36;;;;;;;224.38;107.22;;;18.10;99.90;;;;;;4971215;28;20407;-91
2023/07/10 01:52:04;;;;;;;215.52;104.22;;;17.90;99.90;;;;;;4971702;28;20481;-91
2023/07/10 01:54:31;;;;;;;149.65;88.05;;;17.90;99.90;;;;;;4971225;28;20830;-91
2023/07/10 01:56:57;;;;;;;347.33;110.13;;;18.10;99.90;;;;;;4971291;28;20499;-90
2023/07/10 01:59:22;;;;;;;115.23;71.83;;;17.80;99.90;;;;;;4987026;28;20414;-90
2023/07/10 02:01:49;;;;;;;106.47;76.03;;;17.80;99.90;;;;;;4987556;28;20910;-90
2023/07/10 02:04:15;;;;;;;329.20;110.68;;;17.80;99.90;;;;;;4971071;28;20435;-91
2023/07/10 02:06:40;;;;;;;487.53;122.97;;;17.80;99.90;;;;;;4987175;28;20468;-90
2023/07/10 02:09:07;;;;;;;99.45;64.75;;;17.70;99.90;;;;;;4987310;28;20498;-89
2023/07/10 02:11:37;;;;;;;134.88;81.47;;;17.80;99.90;;;;;;4986366;28;20487;-90
2023/07/10 02:14:07;;;;;;;173.20;91.53;;;17.60;99.90;;;;;;4971238;28;20504;-89
2023/07/10 02:16:32;;;;;;;109.93;73.07;;;17.60;99.90;;;;;;4986180;28;20410;-89
2023/07/10 02:18:59;;;;;;;157.07;79.57;;;17.80;99.90;;;;;;4986649;28;20414;-89
2023/07/10 02:21:25;;;;;;;102.55;72.07;;;17.50;99.90;;;;;;4986799;28;20407;-90
2023/07/10 02:23:51;;;;;;;116.53;75.65;;;17.60;99.90;;;;;;4970602;28;20442;-90
2023/07/10 02:26:18;;;;;;;156.70;74.23;;;17.60;99.90;;;;;;4986741;28;20450;-90
2023/07/10 02:28:44;;;;;;;248.68;100.15;;;17.60;99.90;;;;;;4970328;28;20411;-90
2023/07/10 02:31:10;;;;;;;303.08;104.30;;;17.50;99.90;;;;;;4970792;28;20425;-90
2023/07/10 02:33:36;;;;;;;163.32;72.60;;;17.40;99.90;;;;;;4986447;28;20415;-90
2023/07/10 02:36:03;;;;;;;67.22;55.78;;;17.50;99.90;;;;;;4986826;28;20983;-90
2023/07/10 02:38:28;;;;;;;189.20;72.68;;;17.50;99.90;;;;;;4970192;28;20421;-89
2023/07/10 02:40:55;;;;;;;124.73;68.60;;;17.50;99.90;;;;;;4986696;28;20501;-90
2023/07/10 02:43:21;;;;;;;188.90;88.00;;;17.40;99.90;;;;;;4970449;28;20441;-90
2023/07/10 02:45:46;;;;;;;101.43;64.15;;;17.40;99.90;;;;;;4986529;28;20423;-90
2023/07/10 02:48:12;;;;;;;69.35;50.53;;;17.50;99.90;;;;;;4986581;28;20410;-90
2023/07/10 02:50:38;;;;;;;61.27;44.13;;;17.50;99.90;;;;;;4969727;28;20422;-91
2023/07/10 02:53:04;;;;;;;63.85;43.83;;;17.50;99.90;;;;;;4986782;28;20415;-89
2023/07/10 02:55:29;;;;;;;31.03;27.20;;;17.90;99.90;;;;;;4985974;28;20806;-90
2023/07/10 02:57:55;;;;;;;43.22;31.50;;;17.50;99.90;;;;;;4986274;28;20418;-89
2023/07/10 03:00:21;;;;;;;42.75;31.75;;;17.40;99.90;;;;;;4969940;28;20441;-91
2023/07/10 03:02:47;;;;;;;34.87;28.27;;;17.40;99.90;;;;;;4985538;28;20406;-90
2023/07/10 03:05:12;;;;;;;47.03;30.73;;;17.70;99.90;;;;;;4986077;28;20504;-89
2023/07/10 03:07:38;;;;;;;33.87;25.33;;;17.30;99.90;;;;;;4986141;28;20989;-90
2023/07/10 03:10:04;;;;;;;28.35;23.30;;;17.50;99.90;;;;;;4986134;28;20414;-90
2023/07/10 03:12:30;;;;;;;30.92;24.27;;;17.30;99.90;;;;;;4969799;28;20811;-90
2023/07/10 03:14:56;;;;;;;33.17;24.60;;;17.20;99.90;;;;;;4985613;28;20433;-88
2023/07/10 03:17:22;;;;;;;23.97;20.90;;;17.60;99.90;;;;;;4986311;28;20425;-89
2023/07/10 03:19:50;;;;;;;31.40;23.50;;;17.20;99.90;;;;;;4969447;28;20923;-89
2023/07/10 03:22:16;;;;;;;28.37;22.80;;;17.20;99.90;;;;;;4970464;28;20468;-89
2023/07/10 03:24:42;;;;;;;49.50;28.63;;;17.20;99.90;;;;;;4971466;28;20430;-89
2023/07/10 03:27:08;;;;;;;29.75;24.27;;;17.20;99.90;;;;;;4989956;28;20406;-88
2023/07/10 03:29:35;;;;;;;32.70;24.43;;;17.20;99.90;;;;;;4989336;28;20489;-90
2023/07/10 03:32:01;;;;;;;38.28;27.98;;;17.00;99.90;;;;;;4973284;28;20418;-90
2023/07/10 03:34:26;;;;;;;34.22;26.48;;;17.10;99.90;;;;;;4989547;28;20415;-89
2023/07/10 03:36:53;;;;;;;31.90;25.80;;;17.10;99.90;;;;;;4973583;28;20476;-89
2023/07/10 03:39:19;;;;;;;50.03;34.72;;;17.30;99.90;;;;;;4989599;28;20823;-88
2023/07/10 03:41:44;;;;;;;64.65;38.65;;;17.20;99.90;;;;;;4973320;28;20421;-90
2023/07/10 03:44:10;;;;;;;35.10;28.47;;;17.10;99.90;;;;;;4973158;28;20800;-91
2023/07/10 03:46:36;;;;;;;49.67;33.55;;;17.10;99.90;;;;;;4972660;28;20958;-89
2023/07/10 03:49:03;;;;;;;52.15;32.92;;;17.00;99.90;;;;;;4973394;28;20515;-91
2023/07/10 03:51:28;;;;;;;50.00;35.30;;;17.20;99.90;;;;;;4988843;28;20442;-88
2023/07/10 03:53:54;;;;;;;41.65;30.65;;;17.00;99.90;;;;;;4973054;28;20446;-89
2023/07/10 03:56:20;;;;;;;102.80;49.20;;;17.30;99.90;;;;;;4973180;28;20406;-88
2023/07/10 03:58:46;;;;;;;101.10;45.95;;;17.00;99.90;;;;;;4973059;28;20418;-90
2023/07/10 04:01:13;;;;;;;69.15;33.15;;;17.00;99.90;;;;;;4988663;28;20406;-89
2023/07/10 04:03:39;;;;;;;51.58;38.13;;;16.80;99.90;;;;;;4971655;28;20461;-89
2023/07/10 04:06:07;;;;;;;47.13;36.28;;;17.00;99.90;;;;;;4988323;28;20410;-89
2023/07/10 04:08:35;;;;;;;55.22;40.80;;;17.00;99.90;;;;;;4971469;28;20417;-89
2023/07/10 04:11:07;;;;;;;59.45;40.65;;;17.10;99.90;;;;;;4972812;28;20450;-90
2023/07/10 04:13:33;;;;;;;46.25;34.95;;;17.10;99.90;;;;;;4972801;28;20445;-90
2023/07/10 04:16:02;;;;;;;38.10;32.00;;;17.50;99.90;;;;;;4972227;28;20418;-89
2023/07/10 04:18:33;;;;;;;41.77;31.77;;;17.40;99.90;;;;;;4973041;28;20419;-90
2023/07/10 04:21:01;;;;;;;46.30;33.88;;;17.40;99.90;;;;;;4988635;28;20415;-89
2023/07/10 04:23:27;;;;;;;44.40;30.00;;;17.50;99.90;;;;;;4973007;28;20514;-91
2023/07/10 04:25:53;;;;;;;30.55;25.58;;;17.80;99.90;;;;;;4972630;28;20810;-90
2023/07/10 04:28:19;;;;;;;28.50;22.80;;;17.80;99.90;;;;;;4972523;28;20453;-90
2023/07/10 04:30:46;;;;;;;26.45;22.35;;;17.50;99.90;;;;;;4972621;28;20406;-91
2023/07/10 04:33:14;;;;;;;31.77;23.23;;;17.50;99.90;;;;;;4972700;28;20899;-90
2023/07/10 04:35:40;;;;;;;26.65;19.80;;;17.60;99.90;;;;;;4972654;28;20816;-90
2023/07/10 04:38:06;;;;;;;24.48;19.85;;;17.90;99.90;;;;;;4972281;28;20406;-92
2023/07/10 04:40:32;;;;;;;22.23;17.77;;;17.60;99.90;;;;;;4988847;28;20489;-90
2023/07/10 04:42:57;;;;;;;23.05;19.60;;;17.80;99.90;;;;;;4971608;28;20496;-90
2023/07/10 04:45:23;;;;;;;25.70;19.53;;;17.70;99.90;;;;;;4972292;28;20421;-91
2023/07/10 04:47:49;;;;;;;26.27;19.10;;;17.80;99.90;;;;;;4988169;28;20480;-89
2023/07/10 04:50:14;;;;;;;23.03;19.47;;;18.00;99.90;;;;;;4972396;28;20786;-90
2023/07/10 04:52:40;;;;;;;25.60;19.55;;;17.70;99.90;;;;;;4988243;28;20419;-90
2023/07/10 04:55:07;;;;;;;39.23;23.17;;;17.70;99.90;;;;;;4971857;28;20403;-91
2023/07/10 04:57:33;;;;;;;25.15;19.48;;;17.70;99.90;;;;;;4971900;28;20414;-90
2023/07/10 04:59:59;;;;;;;19.73;16.05;;;17.70;99.90;;;;;;4971732;28;20411;-90
2023/07/10 05:02:24;;;;;;;19.50;15.90;;;18.10;99.90;;;;;;4971684;28;20465;-92
2023/07/10 05:04:50;;;;;;;18.98;15.32;;;17.60;99.90;;;;;;4988950;28;20430;-93
2023/07/10 05:07:16;;;;;;;19.77;15.55;;;17.80;99.90;;;;;;4972882;28;20414;-91
2023/07/10 05:09:42;;;;;;;20.27;15.03;;;17.90;99.90;;;;;;4972439;28;20418;-94
2023/07/10 05:12:07;;;;;;;16.17;12.73;;;18.00;99.90;;;;;;4972587;28;20457;-93
2023/07/10 05:14:33;;;;;;;25.50;15.17;;;18.00;99.90;;;;;;4988970;28;20410;-93
2023/07/10 05:16:59;;;;;;;21.92;14.30;;;18.10;99.90;;;;;;4972148;28;20434;-93
2023/07/10 05:19:25;;;;;;;20.37;13.97;;;18.40;99.90;;;;;;4972748;28;20768;-91
2023/07/10 05:21:51;;;;;;;18.42;13.35;;;18.10;99.90;;;;;;4972190;28;20493;-92
2023/07/10 05:24:17;;;;;;;17.90;11.50;;;18.10;99.90;;;;;;4971822;28;20509;-93
2023/07/10 05:26:42;;;;;;;16.95;10.88;;;18.10;99.90;;;;;;4971673;28;20526;-92
2023/07/10 05:29:08;;;;;;;25.13;13.27;;;18.10;99.90;;;;;;4971679;28;20425;-91
2023/07/10 05:31:34;;;;;;;16.55;11.50;;;18.10;99.90;;;;;;4972190;28;20506;-92
2023/07/10 05:34:00;;;;;;;15.73;10.88;;;18.30;99.90;;;;;;4971637;28;20461;-91
2023/07/10 05:36:27;;;;;;;18.37;11.90;;;18.00;99.90;;;;;;4972269;28;20411;-93
2023/07/10 05:38:53;;;;;;;21.42;11.82;;;17.80;99.90;;;;;;4971722;28;20497;-92
2023/07/10 05:41:19;;;;;;;15.23;9.90;;;18.00;99.90;;;;;;4971935;28;20410;-92
2023/07/10 05:43:46;;;;;;;19.08;12.07;;;18.20;99.90;;;;;;4970877;28;20438;-92
2023/07/10 05:46:13;;;;;;;14.80;9.83;;;17.90;99.90;;;;;;4971805;28;20438;-89
2023/07/10 05:48:38;;;;;;;16.98;9.85;;;17.90;99.90;;;;;;4971667;28;20771;-91
2023/07/10 05:51:04;;;;;;;16.67;9.73;;;17.90;99.90;;;;;;4971851;28;20407;-91
2023/07/10 05:53:33;;;;;;;18.02;10.63;;;18.10;99.90;;;;;;4971500;28;20403;-91
2023/07/10 05:56:00;;;;;;;15.25;10.68;;;18.20;99.90;;;;;;4971715;28;20915;-91
2023/07/10 05:58:28;;;;;;;15.57;10.82;;;18.20;99.90;;;;;;4987675;28;20465;-91
2023/07/10 06:00:57;;;;;;;13.90;9.25;;;18.70;99.90;;;;;;4970595;28;20407;-91
2023/07/10 06:03:23;;;;;;;15.88;9.75;;;18.60;99.90;;;;;;4987143;28;20430;-91
2023/07/10 06:05:53;;;;;;;18.13;11.10;;;18.50;99.90;;;;;;4971281;28;20771;-91
2023/07/10 06:08:19;;;;;;;14.75;9.27;;;18.40;99.90;;;;;;4979369;28;21006;-92
2023/07/10 06:10:45;;;;;;;15.07;9.77;;;18.60;99.90;;;;;;4951845;28;20405;-93
2023/07/10 06:13:11;;;;;;;15.47;9.60;;;18.70;99.90;;;;;;4967529;28;20414;-90
2023/07/10 06:15:41;;;;;;;14.10;8.88;;;19.20;99.90;;;;;;4952006;28;20834;-92
2023/07/10 06:18:07;;;;;;;15.50;9.63;;;19.00;99.90;;;;;;4967807;28;20413;-91
2023/07/10 06:20:32;;;;;;;12.48;9.40;;;19.00;99.90;;;;;;4952303;28;20427;-92
2023/07/10 06:22:58;;;;;;;14.07;9.03;;;19.00;99.90;;;;;;4968038;28;20432;-91
2023/07/10 06:25:24;;;;;;;12.13;7.85;;;19.20;99.90;;;;;;4967530;28;20959;-90
2023/07/10 06:27:49;;;;;;;15.13;7.90;;;19.50;99.90;;;;;;4951718;28;20412;-92
2023/07/10 06:30:15;;;;;;;14.65;8.23;;;19.40;99.90;;;;;;4967799;28;20415;-92
2023/07/10 06:32:41;;;;;;;15.05;7.90;;;19.60;99.90;;;;;;4968007;28;20495;-91
2023/07/10 06:35:07;;;;;;;10.98;5.35;;;19.80;99.90;;;;;;4967819;28;20408;-92
2023/07/10 06:37:33;;;;;;;12.77;6.03;;;19.70;99.90;;;;;;4967727;28;20415;-91
2023/07/10 06:40:10;;;;;;;11.53;5.17;;;19.70;99.90;;;;;;4966346;28;20423;-93
2023/07/10 06:42:36;;;;;;;11.48;6.47;;;19.70;99.90;;;;;;4967184;28;20427;-92
2023/07/10 06:45:03;;;;;;;11.23;4.78;;;19.80;99.90;;;;;;4967184;28;20443;-90
2023/07/10 06:47:31;;;;;;;9.90;4.47;;;19.70;99.90;;;;;;4967221;28;20872;-91
2023/07/10 06:49:57;;;;;;;10.05;4.68;;;19.70;99.90;;;;;;4951078;28;20463;-89
2023/07/10 06:52:23;;;;;;;10.43;4.72;;;19.60;99.90;;;;;;4951279;28;20940;-90
2023/07/10 06:54:49;;;;;;;12.37;5.53;;;20.00;99.90;;;;;;4951369;28;20415;-92
2023/07/10 06:57:14;;;;;;;10.15;4.80;;;19.70;99.90;;;;;;4950440;28;20961;-90
2023/07/10 06:59:40;;;;;;;11.40;4.37;;;19.90;99.90;;;;;;4966905;28;20420;-91
2023/07/10 07:02:06;;;;;;;11.90;5.68;;;19.90;99.90;;;;;;4959755;28;20507;-91
2023/07/10 07:04:31;;;;;;;10.97;4.13;;;19.90;99.90;;;;;;4969543;28;20419;-92
2023/07/10 07:06:58;;;;;;;9.00;4.93;;;19.90;99.90;;;;;;4970631;28;21074;-92
2023/07/10 07:09:24;;;;;;;11.07;4.78;;;20.00;99.90;;;;;;4969820;28;20410;-91
2023/07/10 07:11:49;;;;;;;11.38;5.00;;;20.40;99.90;;;;;;4970238;28;20554;-92
2023/07/10 07:14:15;;;;;;;12.00;5.30;;;20.20;99.90;;;;;;4970155;28;20503;-90
2023/07/10 07:16:41;;;;;;;9.45;4.13;;;20.40;99.90;;;;;;4970110;28;20414;-92
2023/07/10 07:19:06;;;;;;;9.30;4.80;;;20.70;99.90;;;;;;4970180;28;20414;-91
2023/07/10 07:21:32;;;;;;;12.15;5.00;;;20.50;99.90;;;;;;4970228;28;20918;-91
2023/07/10 07:24:00;;;;;;;9.95;4.90;;;20.60;99.90;;;;;;4953751;28;22225;-91
2023/07/10 07:26:25;;;;;;;9.23;4.43;;;20.60;99.90;;;;;;4970061;28;20939;-91
2023/07/10 07:28:51;;;;;;;9.70;3.73;;;20.80;99.90;;;;;;4986262;28;20445;-90
2023/07/10 07:31:17;;;;;;;7.72;3.85;;;21.00;99.90;;;;;;4970075;28;20465;-92
2023/07/10 07:33:42;;;;;;;11.07;3.83;;;20.80;99.90;;;;;;4970426;28;20414;-93
2023/07/10 07:36:08;;;;;;;9.93;4.15;;;21.50;99.90;;;;;;4969071;28;20442;-93
2023/07/10 07:38:34;;;;;;;10.23;3.90;;;21.80;99.90;;;;;;4970144;28;20489;-91
2023/07/10 07:41:07;;;;;;;11.00;4.20;;;21.10;99.90;;;;;;4969856;28;20414;-93
2023/07/10 07:43:33;;;;;;;9.65;3.60;;;21.30;99.90;;;;;;4969486;28;20450;-92
2023/07/10 07:45:59;;;;;;;9.30;3.40;;;21.80;99.90;;;;;;4986174;28;20410;-92
2023/07/10 07:48:25;;;;;;;9.47;3.63;;;21.70;99.90;;;;;;4969887;28;20422;-92
2023/07/10 07:51:04;;;;;;;11.57;3.40;;;21.50;99.90;;;;;;4986463;28;20744;-91
2023/07/10 07:53:33;;;;;;;8.43;2.90;;;21.40;99.90;;;;;;4969597;28;20473;-91
2023/07/10 07:55:59;;;;;;;9.67;3.10;;;22.00;99.90;;;;;;4970128;28;20419;-92
2023/07/10 07:58:25;;;;;;;8.43;2.80;;;21.60;99.90;;;;;;4986077;28;20415;-91
2023/07/10 08:00:51;;;;;;;9.93;2.63;;;21.40;99.90;;;;;;4969434;28;20453;-92
2023/07/10 08:03:18;;;;;;;10.23;2.45;;;21.50;99.90;;;;;;4970444;28;20415;-94
2023/07/10 08:05:44;;;;;;;8.02;2.20;;;21.70;99.90;;;;;;4970149;28;20442;-94
2023/07/10 08:08:19;;;;;;;10.02;3.20;;;22.20;99.90;;;;;;4970197;28;20419;-93
2023/07/10 08:10:47;;;;;;;10.43;2.72;;;22.10;99.90;;;;;;4969711;28;20417;-93
2023/07/10 08:13:14;;;;;;;7.70;2.63;;;22.20;99.90;;;;;;4973478;28;20424;-93
2023/07/10 08:15:42;;;;;;;10.18;2.60;;;22.40;99.90;;;;;;4972605;28;20422;-92
2023/07/10 08:18:08;;;;;;;11.10;2.70;;;22.40;99.90;;;;;;4973760;28;20900;-93
2023/07/10 08:20:35;;;;;;;8.98;2.30;;;22.30;99.90;;;;;;4973318;28;20932;-92
2023/07/10 08:23:03;;;;;;;8.98;2.33;;;22.60;99.90;;;;;;4973257;28;20482;-93
2023/07/10 08:25:29;;;;;;;9.55;2.58;;;22.70;99.90;;;;;;4971484;28;20448;-92
2023/07/10 08:27:58;;;;;;;11.27;3.25;;;22.90;99.90;;;;;;4973022;28;20487;-93
2023/07/10 08:30:30;;;;;;;11.95;2.95;;;22.90;99.90;;;;;;4973675;28;20429;-92
2023/07/10 08:32:58;;;;;;;9.60;2.38;;;23.20;99.90;;;;;;4989100;28;20415;-94
2023/07/10 08:35:24;;;;;;;9.65;3.13;;;22.90;99.90;;;;;;4972895;28;20473;-93
2023/07/10 08:37:51;;;;;;;10.32;3.03;;;23.40;99.90;;;;;;4973402;28;20508;-94
2023/07/10 08:40:31;;;;;;;9.77;2.60;;;22.90;99.90;;;;;;4979919;28;20790;-93
2023/07/10 08:43:01;;;;;;;8.43;2.88;;;22.80;99.90;;;;;;4973289;28;20403;-93
2023/07/10 08:45:36;;;;;;;14.15;3.03;;;22.70;99.90;;;;;;4972198;28;20430;-93
2023/07/10 08:48:17;;;;;;;11.38;3.25;;;22.70;99.90;;;;;;4972692;28;20502;-93
2023/07/10 08:50:47;;;;;;;8.70;2.70;;;22.80;99.90;;;;;;4973032;28;20502;-93
2023/07/10 08:53:16;;;;;;;10.57;2.83;;;22.70;99.90;;;;;;4973467;28;20522;-92
2023/07/10 08:55:42;;;;;;;11.43;2.92;;;23.10;99.90;;;;;;4972772;28;20847;-94
2023/07/10 08:58:17;;;;;;;10.77;2.78;;;23.10;99.90;;;;;;4971712;28;20414;-89
2023/07/10 09:00:47;;;;;;;7.93;3.05;;;23.10;99.90;;;;;;4986156;28;20442;-89
2023/07/10 09:03:35;;;;;;;10.57;3.10;;;23.20;99.90;;;;;;4971079;28;20403;-89
2023/07/10 09:06:03;;;;;;;9.82;2.95;;;23.20;99.90;;;;;;4992251;28;20410;-88
2023/07/10 09:08:37;;;;;;;10.20;3.13;;;23.10;99.90;;;;;;4988068;28;20461;-93
2023/07/10 09:11:03;;;;;;;11.73;3.05;;;23.30;99.90;;;;;;4971551;28;20488;-90
2023/07/10 09:13:46;;;;;;;12.00;2.92;;;23.30;99.90;;;;;;4988371;28;20422;-90
2023/07/10 09:16:20;;;;;;;8.85;3.10;;;23.20;99.90;;;;;;4987021;28;20427;-88
2023/07/10 09:18:57;;;;;;;10.10;2.37;;;23.10;99.90;;;;;;4955440;28;20415;-91
2023/07/10 09:21:38;;;;;;;9.73;2.72;;;23.30;99.90;;;;;;4987200;28;20807;-90
2023/07/10 09:24:04;;;;;;;10.07;2.90;;;23.50;99.90;;;;;;4954900;28;20549;-90
2023/07/10 09:26:38;;;;;;;9.15;2.38;;;23.40;99.90;;;;;;4987387;28;20402;-91
2023/07/10 09:29:10;;;;;;;9.83;2.53;;;23.40;99.90;;;;;;4971376;28;20419;-92
2023/07/10 09:31:56;;;;;;;12.00;2.80;;;23.40;99.90;;;;;;4970003;28;20497;-87
2023/07/10 09:34:28;;;;;;;12.27;2.60;;;23.20;99.90;;;;;;4984932;28;20438;-89
2023/07/10 09:36:57;;;;;;;8.48;2.22;;;23.20;99.90;;;;;;4985773;28;20421;-88
2023/07/10 09:39:33;;;;;;;8.27;2.03;;;23.50;99.90;;;;;;4986641;28;20439;-93
2023/07/10 09:42:01;;;;;;;8.77;2.20;;;23.70;99.90;;;;;;4970718;28;20458;-91
2023/07/10 09:44:37;;;;;;;8.33;2.03;;;23.90;99.90;;;;;;4970847;28;20441;-89
2023/07/10 09:47:12;;;;;;;8.75;1.85;;;24.00;99.90;;;;;;4986941;28;20438;-90
2023/07/10 09:49:49;;;;;;;8.63;1.88;;;24.30;99.90;;;;;;4986665;28;20429;-90
2023/07/10 09:52:33;;;;;;;9.30;1.97;;;24.60;99.90;;;;;;4986918;28;20497;-92
2023/07/10 09:55:07;;;;;;;10.38;2.15;;;24.80;99.90;;;;;;4987010;28;20426;-92
2023/07/10 09:57:52;;;;;;;9.05;2.28;;;24.60;99.90;;;;;;4970694;28;20476;-86
2023/07/10 10:00:19;;;;;;;9.27;1.83;;;24.70;99.90;;;;;;4985717;28;20422;-87
2023/07/10 10:03:15;;;;;;;9.95;2.13;;;24.80;99.90;;;;;;4986112;28;20497;-89
2023/07/10 10:05:41;;;;;;;9.90;2.17;;;25.10;99.90;;;;;;4966140;28;20461;-90
2023/07/10 10:08:30;;;;;;;8.35;1.67;;;25.10;99.90;;;;;;4969723;28;20434;-88
2023/07/10 10:11:12;;;;;;;8.80;2.00;;;25.00;99.90;;;;;;4985810;28;20446;-89
2023/07/10 10:14:02;;;;;;;8.50;1.93;;;25.00;99.90;;;;;;4986501;28;20418;-88
2023/07/10 10:16:54;;;;;;;9.30;2.15;;;25.30;99.90;;;;;;4969122;28;20422;-88
2023/07/10 10:19:40;;;;;;;10.85;2.13;;;25.60;99.90;;;;;;4969942;28;20498;-89
2023/07/10 10:22:14;;;;;;;8.45;1.90;;;25.50;99.90;;;;;;4969459;28;20480;-88
2023/07/10 10:24:40;;;;;;;9.87;2.67;;;25.40;99.90;;;;;;4969024;28;21198;-86
2023/07/10 10:27:41;;;;;;;9.13;2.40;;;25.60;99.90;;;;;;4985719;28;20465;-88
2023/07/10 10:30:24;;;;;;;11.00;2.47;;;25.60;99.90;;;;;;4969410;28;20421;-90
2023/07/10 10:33:18;;;;;;;8.70;2.33;;;25.40;99.50;;;;;;4969448;28;20470;-90
2023/07/10 10:36:01;;;;;;;7.68;1.60;;;25.10;99.80;;;;;;4977049;28;20422;-91
2023/07/10 10:38:51;;;;;;;9.13;1.98;;;25.10;99.90;;;;;;4960480;28;20418;-91
2023/07/10 10:41:43;;;;;;;10.23;2.53;;;25.10;99.90;;;;;;4984611;28;20410;-87
2023/07/10 10:44:37;;;;;;;8.10;2.00;;;24.90;97.30;;;;;;4970264;28;20438;-91
2023/07/10 10:47:37;;;;;;;9.52;2.03;;;25.10;99.90;;;;;;4969955;28;20414;-89
2023/07/10 10:50:18;;;;;;;7.65;1.70;;;25.60;99.00;;;;;;4985011;28;20410;-91
2023/07/10 10:52:58;;;;;;;7.55;1.65;;;26.00;98.60;;;;;;4970272;28;20457;-89
2023/07/10 10:55:57;;;;;;;9.15;1.75;;;26.30;97.10;;;;;;4986069;28;20426;-88
2023/07/10 10:58:35;;;;;;;7.72;1.90;;;26.80;98.80;;;;;;4985100;28;20776;-91
2023/07/10 11:01:14;;;;;;;8.75;2.15;;;26.80;91.90;;;;;;4985833;28;20462;-91
2023/07/10 11:03:47;;;;;;;6.20;1.55;;;26.50;93.30;;;;;;4985214;28;20541;-91
2023/07/10 11:06:47;;;;;;;7.25;1.48;;;26.70;93.50;;;;;;4984315;28;20427;-89
2023/07/10 11:09:31;;;;;;;7.45;1.50;;;27.00;90.90;;;;;;4985127;28;20414;-90
2023/07/10 11:11:58;;;;;;;6.20;1.13;;;27.20;88.00;;;;;;4968383;28;20422;-90
2023/07/10 11:14:30;;;;;;;8.02;1.30;;;27.40;78.90;;;;;;4968767;28;20422;-87
2023/07/10 11:16:58;;;;;;;7.07;1.30;;;27.10;71.80;;;;;;4968738;28;20514;-87
2023/07/10 11:19:27;;;;;;;7.60;1.00;;;27.10;85.80;;;;;;4985595;28;20421;-90
2023/07/10 11:21:54;;;;;;;6.50;1.13;;;27.20;90.60;;;;;;5001603;28;20442;-88
2023/07/10 11:24:26;;;;;;;6.15;1.10;;;27.50;74.20;;;;;;4969097;28;20430;-93
2023/07/10 11:26:52;;;;;;;5.30;0.90;;;27.70;87.80;;;;;;4985271;28;20418;-89
2023/07/10 11:29:22;;;;;;;5.95;0.90;;;27.60;61.50;;;;;;4968265;28;20506;-90
2023/07/10 11:31:55;;;;;;;4.78;0.60;;;27.50;75.60;;;;;;4968716;28;20414;-87
2023/07/10 11:34:30;;;;;;;5.63;0.80;;;27.60;76.50;;;;;;4968195;28;20899;-87
2023/07/10 11:36:58;;;;;;;5.13;0.70;;;27.70;70.60;;;;;;4984500;28;20418;-87
2023/07/10 11:39:53;;;;;;;8.00;0.80;;;27.90;63.80;;;;;;4968480;28;20414;-88
2023/07/10 11:42:28;;;;;;;3.88;0.65;;;28.00;63.80;;;;;;4968424;28;20420;-89
2023/07/10 11:45:00;;;;;;;5.53;1.00;;;28.20;63.80;;;;;;4985100;28;20426;-91
2023/07/10 11:47:29;;;;;;;6.55;0.77;;;28.40;61.80;;;;;;4989122;28;20410;-88
2023/07/10 11:49:55;;;;;;;3.90;0.60;;;28.70;61.90;;;;;;4987897;28;20493;-90
2023/07/10 11:52:28;;;;;;;4.20;0.80;;;28.90;59.20;;;;;;4988380;28;20472;-87
2023/07/10 11:54:56;;;;;;;8.05;1.08;;;28.90;57.50;;;;;;4987858;28;20418;-89
2023/07/10 11:57:32;;;;;;;4.90;0.80;;;29.00;59.50;;;;;;4971908;28;20823;-89
2023/07/10 12:00:13;;;;;;;5.25;0.73;;;29.10;59.00;;;;;;4971743;28;20473;-90
2023/07/10 12:02:48;;;;;;;3.90;0.70;;;29.30;59.70;;;;;;4972012;28;21121;-89
2023/07/10 12:05:18;;;;;;;4.43;0.70;;;29.30;55.50;;;;;;4972411;28;20441;-93
2023/07/10 12:08:03;;;;;;;4.60;0.63;;;29.30;53.70;;;;;;4972390;28;20453;-91
2023/07/10 12:10:35;;;;;;;4.70;0.60;;;29.20;57.50;;;;;;4988503;28;20438;-93
2023/07/10 12:13:03;;;;;;;3.63;0.50;;;28.90;55.40;;;;;;4956484;28;20410;-86
2023/07/10 12:15:29;;;;;;;5.13;0.70;;;28.70;56.60;;;;;;4987787;28;20419;-89
2023/07/10 12:17:56;;;;;;;4.00;0.60;;;28.60;59.40;;;;;;4987721;28;20485;-91
2023/07/10 12:20:26;;;;;;;4.78;1.00;;;28.70;62.10;;;;;;4971750;28;20414;-88
2023/07/10 12:23:00;;;;;;;5.63;0.60;;;28.90;56.70;;;;;;4971749;28;20418;-89
2023/07/10 12:25:26;;;;;;;4.15;0.60;;;28.80;51.40;;;;;;4987327;28;20542;-90
2023/07/10 12:27:51;;;;;;;5.57;0.63;;;28.60;52.20;;;;;;4971799;28;20479;-89
2023/07/10 12:30:20;;;;;;;6.65;0.80;;;28.50;55.20;;;;;;5004357;28;20423;-90
2023/07/10 12:32:48;;;;;;;4.90;0.82;;;28.70;56.60;;;;;;4971722;28;20784;-89
2023/07/10 12:35:31;;;;;;;4.72;0.60;;;28.70;56.00;;;;;;4986932;28;20480;-90
2023/07/10 12:38:02;;;;;;;3.63;0.77;;;28.70;52.80;;;;;;4971123;28;20411;-89
2023/07/10 12:40:29;;;;;;;4.73;0.50;;;28.60;50.30;;;;;;4971364;28;20415;-90
2023/07/10 12:42:55;;;;;;;2.93;0.30;;;28.60;48.60;;;;;;4971671;28;20534;-90
2023/07/10 12:45:30;;;;;;;2.63;0.30;;;28.70;50.50;;;;;;4971315;28;20518;-87
2023/07/10 12:48:05;;;;;;;2.85;0.30;;;28.80;47.80;;;;;;4987158;28;20414;-91